sensor_id;sensor_type;location;lat;lon;timestamp;P1;durP1;ratioP1;P2;durP2;ratioP2
29940;SDS011;16801;53.562;10.038;2023-12-22T00:00:38;14.73;;;7.20;;
29940;SDS011;16801;53.562;10.038;2023-12-22T00:03:59;7.70;;;3.30;;
29940;SDS011;16801;53.562;10.038;2023-12-22T00:07:20;10.30;;;5.13;;
29940;SDS011;16801;53.562;10.038;2023-12-22T00:10:41;8.93;;;4.47;;
29940;SDS011;16801;53.562;10.038;2023-12-22T00:14:02;11.73;;;4.80;;
29940;SDS011;16801;53.562;10.038;2023-12-22T00:17:24;9.90;;;4.27;;
29940;SDS011;16801;53.562;10.038;2023-12-22T00:20:46;9.10;;;4.33;;
29940;SDS011;16801;53.562;10.038;2023-12-22T00:24:07;8.77;;;3.90;;
29940;SDS011;16801;53.562;10.038;2023-12-22T00:27:28;13.37;;;4.43;;
29940;SDS011;16801;53.562;10.038;2023-12-22T00:30:49;13.33;;;4.87;;
29940;SDS011;16801;53.562;10.038;2023-12-22T00:34:12;8.07;;;3.70;;
29940;SDS011;16801;53.562;10.038;2023-12-22T00:37:32;13.27;;;4.67;;
29940;SDS011;16801;53.562;10.038;2023-12-22T00:40:53;12.63;;;4.43;;
29940;SDS011;16801;53.562;10.038;2023-12-22T00:44:14;10.20;;;5.67;;
29940;SDS011;16801;53.562;10.038;2023-12-22T00:47:35;12.20;;;4.10;;
29940;SDS011;16801;53.562;10.038;2023-12-22T00:50:57;13.77;;;4.37;;
29940;SDS011;16801;53.562;10.038;2023-12-22T00:54:18;7.47;;;4.03;;
29940;SDS011;16801;53.562;10.038;2023-12-22T00:57:39;11.10;;;4.27;;
29940;SDS011;16801;53.562;10.038;2023-12-22T01:01:00;9.87;;;4.83;;
29940;SDS011;16801;53.562;10.038;2023-12-22T01:04:21;13.27;;;5.77;;
29940;SDS011;16801;53.562;10.038;2023-12-22T01:07:44;14.87;;;4.37;;
29940;SDS011;16801;53.562;10.038;2023-12-22T01:11:05;10.23;;;5.07;;
29940;SDS011;16801;53.562;10.038;2023-12-22T01:14:26;7.57;;;5.17;;
29940;SDS011;16801;53.562;10.038;2023-12-22T01:17:47;6.97;;;4.70;;
29940;SDS011;16801;53.562;10.038;2023-12-22T01:21:08;11.60;;;4.97;;
29940;SDS011;16801;53.562;10.038;2023-12-22T01:24:30;10.07;;;3.70;;
29940;SDS011;16801;53.562;10.038;2023-12-22T01:27:51;7.63;;;3.47;;
29940;SDS011;16801;53.562;10.038;2023-12-22T01:31:12;23.83;;;3.87;;
29940;SDS011;16801;53.562;10.038;2023-12-22T01:34:33;3.23;;;1.83;;
29940;SDS011;16801;53.562;10.038;2023-12-22T01:37:53;2.73;;;1.47;;
29940;SDS011;16801;53.562;10.038;2023-12-22T01:41:17;5.23;;;1.27;;
29940;SDS011;16801;53.562;10.038;2023-12-22T01:44:38;3.27;;;1.60;;
29940;SDS011;16801;53.562;10.038;2023-12-22T01:48:00;1.90;;;1.00;;
29940;SDS011;16801;53.562;10.038;2023-12-22T01:51:21;3.60;;;1.43;;
29940;SDS011;16801;53.562;10.038;2023-12-22T01:54:42;1.80;;;1.10;;
29940;SDS011;16801;53.562;10.038;2023-12-22T01:58:05;3.17;;;1.23;;
29940;SDS011;16801;53.562;10.038;2023-12-22T02:01:26;1.23;;;1.00;;
29940;SDS011;16801;53.562;10.038;2023-12-22T02:04:48;2.33;;;1.17;;
29940;SDS011;16801;53.562;10.038;2023-12-22T02:08:12;1.87;;;0.93;;
29940;SDS011;16801;53.562;10.038;2023-12-22T02:11:37;1.20;;;0.80;;
29940;SDS011;16801;53.562;10.038;2023-12-22T02:15:00;1.60;;;0.90;;
29940;SDS011;16801;53.562;10.038;2023-12-22T02:18:21;3.60;;;1.80;;
29940;SDS011;16801;53.562;10.038;2023-12-22T02:25:24;2.10;;;1.13;;
29940;SDS011;16801;53.562;10.038;2023-12-22T02:28:45;1.93;;;1.10;;
29940;SDS011;16801;53.562;10.038;2023-12-22T02:32:07;8.10;;;2.73;;
29940;SDS011;16801;53.562;10.038;2023-12-22T02:35:33;4.23;;;2.40;;
29940;SDS011;16801;53.562;10.038;2023-12-22T02:38:56;3.30;;;1.70;;
29940;SDS011;16801;53.562;10.038;2023-12-22T02:42:20;2.93;;;1.43;;
29940;SDS011;16801;53.562;10.038;2023-12-22T02:45:49;2.23;;;2.03;;
29940;SDS011;16801;53.562;10.038;2023-12-22T02:49:10;6.43;;;2.67;;
29940;SDS011;16801;53.562;10.038;2023-12-22T02:52:33;2.70;;;1.50;;
29940;SDS011;16801;53.562;10.038;2023-12-22T02:55:54;4.87;;;1.40;;
29940;SDS011;16801;53.562;10.038;2023-12-22T02:59:16;1.67;;;1.20;;
29940;SDS011;16801;53.562;10.038;2023-12-22T03:02:37;7.80;;;3.00;;
29940;SDS011;16801;53.562;10.038;2023-12-22T03:05:58;1.80;;;1.70;;
29940;SDS011;16801;53.562;10.038;2023-12-22T03:09:20;4.67;;;1.67;;
29940;SDS011;16801;53.562;10.038;2023-12-22T03:12:40;3.53;;;1.40;;
29940;SDS011;16801;53.562;10.038;2023-12-22T03:16:03;2.30;;;1.57;;
29940;SDS011;16801;53.562;10.038;2023-12-22T03:19:28;2.90;;;1.00;;
29940;SDS011;16801;53.562;10.038;2023-12-22T03:22:49;1.63;;;1.47;;
29940;SDS011;16801;53.562;10.038;2023-12-22T03:26:11;3.13;;;0.90;;
29940;SDS011;16801;53.562;10.038;2023-12-22T03:29:32;0.80;;;0.80;;
29940;SDS011;16801;53.562;10.038;2023-12-22T03:32:54;3.03;;;0.93;;
29940;SDS011;16801;53.562;10.038;2023-12-22T03:36:15;1.53;;;0.90;;
29940;SDS011;16801;53.562;10.038;2023-12-22T03:39:36;0.80;;;0.80;;
29940;SDS011;16801;53.562;10.038;2023-12-22T03:42:57;1.17;;;0.80;;
29940;SDS011;16801;53.562;10.038;2023-12-22T03:46:18;0.80;;;0.80;;
29940;SDS011;16801;53.562;10.038;2023-12-22T03:49:40;2.27;;;1.37;;
29940;SDS011;16801;53.562;10.038;2023-12-22T03:53:01;2.07;;;0.97;;
29940;SDS011;16801;53.562;10.038;2023-12-22T03:56:22;6.20;;;2.23;;
29940;SDS011;16801;53.562;10.038;2023-12-22T03:59:43;8.00;;;2.03;;
29940;SDS011;16801;53.562;10.038;2023-12-22T04:03:04;2.77;;;1.43;;
29940;SDS011;16801;53.562;10.038;2023-12-22T04:06:26;1.13;;;1.00;;
29940;SDS011;16801;53.562;10.038;2023-12-22T04:09:48;2.97;;;1.63;;
29940;SDS011;16801;53.562;10.038;2023-12-22T04:13:08;3.70;;;2.27;;
29940;SDS011;16801;53.562;10.038;2023-12-22T04:16:29;3.07;;;1.27;;
29940;SDS011;16801;53.562;10.038;2023-12-22T04:19:50;4.00;;;1.60;;
29940;SDS011;16801;53.562;10.038;2023-12-22T04:23:13;7.57;;;2.33;;
29940;SDS011;16801;53.562;10.038;2023-12-22T04:26:34;4.47;;;2.17;;
29940;SDS011;16801;53.562;10.038;2023-12-22T04:29:55;5.03;;;2.37;;
29940;SDS011;16801;53.562;10.038;2023-12-22T04:33:15;3.07;;;2.07;;
29940;SDS011;16801;53.562;10.038;2023-12-22T04:36:37;4.77;;;1.53;;
29940;SDS011;16801;53.562;10.038;2023-12-22T04:39:59;3.30;;;2.87;;
29940;SDS011;16801;53.562;10.038;2023-12-22T04:43:20;3.50;;;1.77;;
29940;SDS011;16801;53.562;10.038;2023-12-22T04:46:41;2.53;;;1.90;;
29940;SDS011;16801;53.562;10.038;2023-12-22T04:50:02;5.97;;;3.00;;
29940;SDS011;16801;53.562;10.038;2023-12-22T04:53:23;6.03;;;2.13;;
29940;SDS011;16801;53.562;10.038;2023-12-22T04:56:45;6.50;;;2.07;;
29940;SDS011;16801;53.562;10.038;2023-12-22T05:00:07;6.40;;;3.40;;
29940;SDS011;16801;53.562;10.038;2023-12-22T05:03:28;3.97;;;1.70;;
29940;SDS011;16801;53.562;10.038;2023-12-22T05:06:49;9.33;;;2.50;;
29940;SDS011;16801;53.562;10.038;2023-12-22T05:10:10;8.80;;;2.23;;
29940;SDS011;16801;53.562;10.038;2023-12-22T05:13:32;6.47;;;2.47;;
29940;SDS011;16801;53.562;10.038;2023-12-22T05:16:53;12.50;;;2.53;;
29940;SDS011;16801;53.562;10.038;2023-12-22T05:20:16;7.27;;;2.50;;
29940;SDS011;16801;53.562;10.038;2023-12-22T05:23:37;8.80;;;2.73;;
29940;SDS011;16801;53.562;10.038;2023-12-22T05:26:58;3.63;;;2.40;;
29940;SDS011;16801;53.562;10.038;2023-12-22T05:30:20;5.50;;;2.00;;
29940;SDS011;16801;53.562;10.038;2023-12-22T05:33:41;8.23;;;3.10;;
29940;SDS011;16801;53.562;10.038;2023-12-22T05:37:02;5.57;;;1.70;;
29940;SDS011;16801;53.562;10.038;2023-12-22T05:40:23;2.73;;;1.60;;
29940;SDS011;16801;53.562;10.038;2023-12-22T05:43:44;4.90;;;3.10;;
29940;SDS011;16801;53.562;10.038;2023-12-22T05:47:06;3.37;;;1.40;;
29940;SDS011;16801;53.562;10.038;2023-12-22T05:50:28;3.80;;;1.50;;
29940;SDS011;16801;53.562;10.038;2023-12-22T05:53:49;7.33;;;1.63;;
29940;SDS011;16801;53.562;10.038;2023-12-22T05:57:09;2.30;;;1.47;;
29940;SDS011;16801;53.562;10.038;2023-12-22T06:00:30;5.73;;;2.67;;
29940;SDS011;16801;53.562;10.038;2023-12-22T06:03:53;2.63;;;2.27;;
29940;SDS011;16801;53.562;10.038;2023-12-22T06:07:14;6.27;;;1.77;;
29940;SDS011;16801;53.562;10.038;2023-12-22T06:10:35;4.60;;;1.30;;
29940;SDS011;16801;53.562;10.038;2023-12-22T06:13:56;5.87;;;3.13;;
29940;SDS011;16801;53.562;10.038;2023-12-22T06:17:17;4.00;;;2.17;;
29940;SDS011;16801;53.562;10.038;2023-12-22T06:20:40;3.63;;;1.37;;
29940;SDS011;16801;53.562;10.038;2023-12-22T06:24:01;4.77;;;1.20;;
29940;SDS011;16801;53.562;10.038;2023-12-22T06:27:22;3.57;;;2.20;;
29940;SDS011;16801;53.562;10.038;2023-12-22T06:30:43;4.70;;;1.60;;
29940;SDS011;16801;53.562;10.038;2023-12-22T06:34:06;4.23;;;2.87;;
29940;SDS011;16801;53.562;10.038;2023-12-22T06:37:28;4.40;;;2.27;;
29940;SDS011;16801;53.562;10.038;2023-12-22T06:40:49;8.83;;;3.40;;
29940;SDS011;16801;53.562;10.038;2023-12-22T06:44:10;3.63;;;1.87;;
29940;SDS011;16801;53.562;10.038;2023-12-22T06:47:32;5.43;;;2.60;;
29940;SDS011;16801;53.562;10.038;2023-12-22T06:50:53;8.60;;;3.93;;
29940;SDS011;16801;53.562;10.038;2023-12-22T06:54:15;11.27;;;2.53;;
29940;SDS011;16801;53.562;10.038;2023-12-22T06:57:36;10.00;;;5.17;;
29940;SDS011;16801;53.562;10.038;2023-12-22T07:00:57;4.90;;;2.23;;
29940;SDS011;16801;53.562;10.038;2023-12-22T07:04:18;9.77;;;4.83;;
29940;SDS011;16801;53.562;10.038;2023-12-22T07:07:39;15.27;;;4.93;;
29940;SDS011;16801;53.562;10.038;2023-12-22T07:11:01;5.87;;;3.23;;
29940;SDS011;16801;53.562;10.038;2023-12-22T07:14:22;8.63;;;5.00;;
29940;SDS011;16801;53.562;10.038;2023-12-22T07:17:43;19.87;;;5.00;;
29940;SDS011;16801;53.562;10.038;2023-12-22T07:21:04;10.23;;;5.33;;
29940;SDS011;16801;53.562;10.038;2023-12-22T07:24:25;8.43;;;3.30;;
29940;SDS011;16801;53.562;10.038;2023-12-22T07:27:47;11.67;;;3.33;;
29940;SDS011;16801;53.562;10.038;2023-12-22T07:31:08;7.30;;;3.37;;
29940;SDS011;16801;53.562;10.038;2023-12-22T07:34:29;7.87;;;3.40;;
29940;SDS011;16801;53.562;10.038;2023-12-22T07:37:50;18.80;;;5.73;;
29940;SDS011;16801;53.562;10.038;2023-12-22T07:41:11;9.03;;;4.43;;
29940;SDS011;16801;53.562;10.038;2023-12-22T07:44:34;7.90;;;4.80;;
29940;SDS011;16801;53.562;10.038;2023-12-22T07:47:55;12.67;;;5.67;;
29940;SDS011;16801;53.562;10.038;2023-12-22T07:51:16;9.13;;;3.67;;
29940;SDS011;16801;53.562;10.038;2023-12-22T07:54:37;13.47;;;4.60;;
29940;SDS011;16801;53.562;10.038;2023-12-22T07:57:57;4.93;;;2.50;;
29940;SDS011;16801;53.562;10.038;2023-12-22T08:01:20;4.43;;;2.30;;
29940;SDS011;16801;53.562;10.038;2023-12-22T08:04:40;8.13;;;3.10;;
29940;SDS011;16801;53.562;10.038;2023-12-22T08:08:01;6.67;;;4.07;;
29940;SDS011;16801;53.562;10.038;2023-12-22T08:11:22;5.87;;;3.30;;
29940;SDS011;16801;53.562;10.038;2023-12-22T08:14:45;5.30;;;2.67;;
29940;SDS011;16801;53.562;10.038;2023-12-22T08:18:07;11.77;;;2.53;;
29940;SDS011;16801;53.562;10.038;2023-12-22T08:21:28;9.27;;;2.63;;
29940;SDS011;16801;53.562;10.038;2023-12-22T08:24:49;4.23;;;1.70;;
29940;SDS011;16801;53.562;10.038;2023-12-22T08:28:10;3.13;;;2.00;;
29940;SDS011;16801;53.562;10.038;2023-12-22T08:31:32;2.33;;;1.53;;
29940;SDS011;16801;53.562;10.038;2023-12-22T08:34:54;4.60;;;2.47;;
29940;SDS011;16801;53.562;10.038;2023-12-22T08:38:15;3.07;;;1.63;;
29940;SDS011;16801;53.562;10.038;2023-12-22T08:41:36;3.20;;;1.77;;
29940;SDS011;16801;53.562;10.038;2023-12-22T08:44:57;3.13;;;2.90;;
29940;SDS011;16801;53.562;10.038;2023-12-22T08:48:18;4.63;;;2.93;;
29940;SDS011;16801;53.562;10.038;2023-12-22T08:51:40;9.53;;;3.77;;
29940;SDS011;16801;53.562;10.038;2023-12-22T08:55:02;3.83;;;1.93;;
29940;SDS011;16801;53.562;10.038;2023-12-22T08:58:24;5.60;;;3.27;;
29940;SDS011;16801;53.562;10.038;2023-12-22T09:01:45;4.20;;;2.27;;
29940;SDS011;16801;53.562;10.038;2023-12-22T09:05:06;10.87;;;2.37;;
29940;SDS011;16801;53.562;10.038;2023-12-22T09:08:28;4.47;;;1.63;;
29940;SDS011;16801;53.562;10.038;2023-12-22T09:11:49;4.23;;;1.93;;
29940;SDS011;16801;53.562;10.038;2023-12-22T09:15:10;4.50;;;2.20;;
29940;SDS011;16801;53.562;10.038;2023-12-22T09:18:32;2.17;;;1.23;;
29940;SDS011;16801;53.562;10.038;2023-12-22T09:21:53;3.00;;;1.50;;
29940;SDS011;16801;53.562;10.038;2023-12-22T09:25:16;5.90;;;2.50;;
29940;SDS011;16801;53.562;10.038;2023-12-22T09:28:37;2.87;;;2.00;;
29940;SDS011;16801;53.562;10.038;2023-12-22T09:31:58;6.60;;;2.03;;
29940;SDS011;16801;53.562;10.038;2023-12-22T09:35:18;3.50;;;1.70;;
29940;SDS011;16801;53.562;10.038;2023-12-22T09:38:39;3.77;;;2.03;;
29940;SDS011;16801;53.562;10.038;2023-12-22T09:42:02;4.93;;;1.67;;
29940;SDS011;16801;53.562;10.038;2023-12-22T09:45:24;6.23;;;2.17;;
29940;SDS011;16801;53.562;10.038;2023-12-22T09:48:46;4.60;;;2.37;;
29940;SDS011;16801;53.562;10.038;2023-12-22T09:52:08;6.70;;;2.03;;
29940;SDS011;16801;53.562;10.038;2023-12-22T09:55:31;4.23;;;3.13;;
29940;SDS011;16801;53.562;10.038;2023-12-22T09:58:55;2.90;;;1.63;;
29940;SDS011;16801;53.562;10.038;2023-12-22T10:02:17;3.27;;;1.57;;
29940;SDS011;16801;53.562;10.038;2023-12-22T10:05:38;3.73;;;1.90;;
29940;SDS011;16801;53.562;10.038;2023-12-22T10:09:00;5.53;;;2.57;;
29940;SDS011;16801;53.562;10.038;2023-12-22T10:12:24;5.57;;;2.23;;
29940;SDS011;16801;53.562;10.038;2023-12-22T10:15:48;6.30;;;2.83;;
29940;SDS011;16801;53.562;10.038;2023-12-22T10:19:10;5.17;;;2.27;;
29940;SDS011;16801;53.562;10.038;2023-12-22T10:22:31;5.87;;;2.47;;
29940;SDS011;16801;53.562;10.038;2023-12-22T10:25:52;9.60;;;2.47;;
29940;SDS011;16801;53.562;10.038;2023-12-22T10:29:13;7.00;;;3.43;;
29940;SDS011;16801;53.562;10.038;2023-12-22T10:32:35;6.73;;;2.73;;
29940;SDS011;16801;53.562;10.038;2023-12-22T10:36:00;19.57;;;3.80;;
29940;SDS011;16801;53.562;10.038;2023-12-22T10:39:21;13.67;;;3.50;;
29940;SDS011;16801;53.562;10.038;2023-12-22T10:42:43;7.70;;;3.53;;
29940;SDS011;16801;53.562;10.038;2023-12-22T10:46:04;7.03;;;4.73;;
29940;SDS011;16801;53.562;10.038;2023-12-22T10:49:26;12.53;;;3.50;;
29940;SDS011;16801;53.562;10.038;2023-12-22T10:52:50;7.07;;;3.20;;
29940;SDS011;16801;53.562;10.038;2023-12-22T10:56:11;4.73;;;2.90;;
29940;SDS011;16801;53.562;10.038;2023-12-22T10:59:32;6.13;;;2.90;;
29940;SDS011;16801;53.562;10.038;2023-12-22T11:03:01;3.23;;;1.93;;
29940;SDS011;16801;53.562;10.038;2023-12-22T11:06:29;9.53;;;3.50;;
29940;SDS011;16801;53.562;10.038;2023-12-22T11:09:50;2.90;;;2.03;;
29940;SDS011;16801;53.562;10.038;2023-12-22T11:13:12;5.73;;;2.73;;
29940;SDS011;16801;53.562;10.038;2023-12-22T11:16:34;7.77;;;3.13;;
29940;SDS011;16801;53.562;10.038;2023-12-22T11:19:56;6.83;;;2.73;;
29940;SDS011;16801;53.562;10.038;2023-12-22T11:23:19;6.03;;;2.87;;
29940;SDS011;16801;53.562;10.038;2023-12-22T11:26:41;4.63;;;2.43;;
29940;SDS011;16801;53.562;10.038;2023-12-22T11:30:03;6.93;;;2.73;;
29940;SDS011;16801;53.562;10.038;2023-12-22T11:33:27;10.80;;;2.63;;
29940;SDS011;16801;53.562;10.038;2023-12-22T11:36:50;6.33;;;1.93;;
29940;SDS011;16801;53.562;10.038;2023-12-22T11:40:13;8.50;;;2.43;;
29940;SDS011;16801;53.562;10.038;2023-12-22T11:43:34;3.77;;;1.47;;
29940;SDS011;16801;53.562;10.038;2023-12-22T11:47:05;7.97;;;2.83;;
29940;SDS011;16801;53.562;10.038;2023-12-22T11:50:27;3.37;;;2.03;;
29940;SDS011;16801;53.562;10.038;2023-12-22T11:53:48;6.73;;;2.23;;
29940;SDS011;16801;53.562;10.038;2023-12-22T12:00:54;8.47;;;2.57;;
29940;SDS011;16801;53.562;10.038;2023-12-22T12:04:15;4.03;;;1.83;;
29940;SDS011;16801;53.562;10.038;2023-12-22T12:07:40;6.23;;;2.30;;
29940;SDS011;16801;53.562;10.038;2023-12-22T12:11:04;2.80;;;2.17;;
29940;SDS011;16801;53.562;10.038;2023-12-22T12:14:28;4.30;;;2.53;;
29940;SDS011;16801;53.562;10.038;2023-12-22T12:17:51;5.80;;;2.00;;
29940;SDS011;16801;53.562;10.038;2023-12-22T12:21:12;5.10;;;2.47;;
29940;SDS011;16801;53.562;10.038;2023-12-22T12:24:33;5.93;;;1.80;;
29940;SDS011;16801;53.562;10.038;2023-12-22T12:28:02;5.60;;;2.63;;
29940;SDS011;16801;53.562;10.038;2023-12-22T12:31:29;9.93;;;2.57;;
29940;SDS011;16801;53.562;10.038;2023-12-22T12:34:56;4.07;;;2.37;;
29940;SDS011;16801;53.562;10.038;2023-12-22T12:38:18;4.03;;;2.33;;
29940;SDS011;16801;53.562;10.038;2023-12-22T12:41:43;5.03;;;2.50;;
29940;SDS011;16801;53.562;10.038;2023-12-22T12:45:09;10.43;;;3.37;;
29940;SDS011;16801;53.562;10.038;2023-12-22T12:48:31;6.10;;;3.17;;
29940;SDS011;16801;53.562;10.038;2023-12-22T12:51:52;8.37;;;3.30;;
29940;SDS011;16801;53.562;10.038;2023-12-22T12:55:13;5.33;;;3.33;;
29940;SDS011;16801;53.562;10.038;2023-12-22T12:58:34;5.67;;;2.70;;
29940;SDS011;16801;53.562;10.038;2023-12-22T13:01:58;11.67;;;4.50;;
29940;SDS011;16801;53.562;10.038;2023-12-22T13:05:23;12.43;;;2.93;;
29940;SDS011;16801;53.562;10.038;2023-12-22T13:08:46;9.27;;;3.17;;
29940;SDS011;16801;53.562;10.038;2023-12-22T13:12:08;4.93;;;2.77;;
29940;SDS011;16801;53.562;10.038;2023-12-22T13:15:30;4.03;;;2.90;;
29940;SDS011;16801;53.562;10.038;2023-12-22T13:18:51;9.00;;;2.90;;
29940;SDS011;16801;53.562;10.038;2023-12-22T13:22:14;16.33;;;3.97;;
29940;SDS011;16801;53.562;10.038;2023-12-22T13:25:38;5.17;;;4.43;;
29940;SDS011;16801;53.562;10.038;2023-12-22T13:28:59;7.43;;;2.70;;
29940;SDS011;16801;53.562;10.038;2023-12-22T13:32:21;9.43;;;2.63;;
29940;SDS011;16801;53.562;10.038;2023-12-22T13:35:43;4.60;;;2.30;;
29940;SDS011;16801;53.562;10.038;2023-12-22T13:39:08;9.40;;;4.20;;
29940;SDS011;16801;53.562;10.038;2023-12-22T13:42:29;5.57;;;2.47;;
29940;SDS011;16801;53.562;10.038;2023-12-22T13:45:50;7.13;;;2.13;;
29940;SDS011;16801;53.562;10.038;2023-12-22T13:49:12;4.60;;;2.27;;
29940;SDS011;16801;53.562;10.038;2023-12-22T13:52:33;5.73;;;2.67;;
29940;SDS011;16801;53.562;10.038;2023-12-22T13:55:57;7.73;;;3.30;;
29940;SDS011;16801;53.562;10.038;2023-12-22T13:59:29;6.17;;;3.97;;
29940;SDS011;16801;53.562;10.038;2023-12-22T14:02:51;4.57;;;2.40;;
29940;SDS011;16801;53.562;10.038;2023-12-22T14:06:12;9.67;;;3.47;;
29940;SDS011;16801;53.562;10.038;2023-12-22T14:09:33;7.07;;;1.97;;
29940;SDS011;16801;53.562;10.038;2023-12-22T14:12:55;11.00;;;3.63;;
29940;SDS011;16801;53.562;10.038;2023-12-22T14:16:16;7.00;;;2.73;;
29940;SDS011;16801;53.562;10.038;2023-12-22T14:19:37;6.57;;;2.43;;
29940;SDS011;16801;53.562;10.038;2023-12-22T14:22:58;3.43;;;2.07;;
29940;SDS011;16801;53.562;10.038;2023-12-22T14:26:19;7.37;;;2.20;;
29940;SDS011;16801;53.562;10.038;2023-12-22T14:29:41;4.97;;;1.70;;
29940;SDS011;16801;53.562;10.038;2023-12-22T14:33:02;9.77;;;4.17;;
29940;SDS011;16801;53.562;10.038;2023-12-22T14:36:23;5.23;;;3.53;;
29940;SDS011;16801;53.562;10.038;2023-12-22T14:39:44;3.27;;;2.40;;
29940;SDS011;16801;53.562;10.038;2023-12-22T14:43:06;5.90;;;1.80;;
29940;SDS011;16801;53.562;10.038;2023-12-22T14:46:28;6.00;;;1.57;;
29940;SDS011;16801;53.562;10.038;2023-12-22T14:49:49;9.97;;;2.67;;
29940;SDS011;16801;53.562;10.038;2023-12-22T14:53:10;7.83;;;2.67;;
29940;SDS011;16801;53.562;10.038;2023-12-22T14:56:31;2.17;;;1.93;;
29940;SDS011;16801;53.562;10.038;2023-12-22T14:59:52;4.67;;;2.17;;
29940;SDS011;16801;53.562;10.038;2023-12-22T15:03:14;7.73;;;1.93;;
29940;SDS011;16801;53.562;10.038;2023-12-22T15:06:37;12.40;;;3.57;;
29940;SDS011;16801;53.562;10.038;2023-12-22T15:09:58;4.50;;;2.47;;
29940;SDS011;16801;53.562;10.038;2023-12-22T15:13:19;6.40;;;2.87;;
29940;SDS011;16801;53.562;10.038;2023-12-22T15:16:40;3.17;;;1.87;;
29940;SDS011;16801;53.562;10.038;2023-12-22T15:20:05;5.20;;;2.10;;
29940;SDS011;16801;53.562;10.038;2023-12-22T15:23:28;2.53;;;1.80;;
29940;SDS011;16801;53.562;10.038;2023-12-22T15:26:50;6.53;;;3.47;;
29940;SDS011;16801;53.562;10.038;2023-12-22T15:30:12;5.60;;;2.10;;
29940;SDS011;16801;53.562;10.038;2023-12-22T15:33:33;6.23;;;4.00;;
29940;SDS011;16801;53.562;10.038;2023-12-22T15:36:55;6.67;;;2.00;;
29940;SDS011;16801;53.562;10.038;2023-12-22T15:40:16;3.33;;;1.37;;
29940;SDS011;16801;53.562;10.038;2023-12-22T15:43:39;13.37;;;3.10;;
29940;SDS011;16801;53.562;10.038;2023-12-22T15:47:00;5.23;;;2.40;;
29940;SDS011;16801;53.562;10.038;2023-12-22T15:50:21;9.73;;;2.43;;
29940;SDS011;16801;53.562;10.038;2023-12-22T15:53:43;3.83;;;1.90;;
29940;SDS011;16801;53.562;10.038;2023-12-22T15:57:04;11.57;;;2.77;;
29940;SDS011;16801;53.562;10.038;2023-12-22T16:00:24;7.23;;;2.20;;
29940;SDS011;16801;53.562;10.038;2023-12-22T16:03:47;3.73;;;2.27;;
29940;SDS011;16801;53.562;10.038;2023-12-22T16:07:10;4.47;;;2.80;;
29940;SDS011;16801;53.562;10.038;2023-12-22T16:10:32;6.67;;;2.50;;
29940;SDS011;16801;53.562;10.038;2023-12-22T16:13:54;5.60;;;2.83;;
29940;SDS011;16801;53.562;10.038;2023-12-22T16:17:16;5.47;;;2.20;;
29940;SDS011;16801;53.562;10.038;2023-12-22T16:20:37;5.17;;;2.37;;
29940;SDS011;16801;53.562;10.038;2023-12-22T16:23:58;4.30;;;2.40;;
29940;SDS011;16801;53.562;10.038;2023-12-22T16:27:20;4.37;;;2.07;;
29940;SDS011;16801;53.562;10.038;2023-12-22T16:30:41;9.23;;;4.03;;
29940;SDS011;16801;53.562;10.038;2023-12-22T16:34:02;6.03;;;2.03;;
29940;SDS011;16801;53.562;10.038;2023-12-22T16:37:23;7.03;;;2.87;;
29940;SDS011;16801;53.562;10.038;2023-12-22T16:40:44;2.03;;;1.63;;
29940;SDS011;16801;53.562;10.038;2023-12-22T16:44:07;3.10;;;1.43;;
29940;SDS011;16801;53.562;10.038;2023-12-22T16:47:27;5.63;;;1.27;;
29940;SDS011;16801;53.562;10.038;2023-12-22T16:50:50;2.13;;;1.70;;
29940;SDS011;16801;53.562;10.038;2023-12-22T16:54:10;4.83;;;2.07;;
29940;SDS011;16801;53.562;10.038;2023-12-22T16:57:31;6.20;;;2.00;;
29940;SDS011;16801;53.562;10.038;2023-12-22T17:00:57;2.83;;;1.50;;
29940;SDS011;16801;53.562;10.038;2023-12-22T17:04:18;5.27;;;2.37;;
29940;SDS011;16801;53.562;10.038;2023-12-22T17:07:39;1.80;;;1.70;;
29940;SDS011;16801;53.562;10.038;2023-12-22T17:11:00;2.43;;;1.40;;
29940;SDS011;16801;53.562;10.038;2023-12-22T17:14:21;10.60;;;2.63;;
29940;SDS011;16801;53.562;10.038;2023-12-22T17:17:43;6.57;;;2.40;;
29940;SDS011;16801;53.562;10.038;2023-12-22T17:21:06;3.03;;;1.80;;
29940;SDS011;16801;53.562;10.038;2023-12-22T17:24:30;4.70;;;2.17;;
29940;SDS011;16801;53.562;10.038;2023-12-22T17:27:51;4.47;;;2.10;;
29940;SDS011;16801;53.562;10.038;2023-12-22T17:31:12;5.03;;;2.13;;
29940;SDS011;16801;53.562;10.038;2023-12-22T17:34:34;3.50;;;1.77;;
29940;SDS011;16801;53.562;10.038;2023-12-22T17:37:55;8.50;;;1.67;;
29940;SDS011;16801;53.562;10.038;2023-12-22T17:41:16;2.43;;;2.03;;
29940;SDS011;16801;53.562;10.038;2023-12-22T17:44:37;3.70;;;1.60;;
29940;SDS011;16801;53.562;10.038;2023-12-22T17:47:58;4.33;;;3.03;;
29940;SDS011;16801;53.562;10.038;2023-12-22T17:51:20;4.27;;;3.87;;
29940;SDS011;16801;53.562;10.038;2023-12-22T17:54:41;4.13;;;2.17;;
29940;SDS011;16801;53.562;10.038;2023-12-22T17:58:03;3.33;;;1.90;;
29940;SDS011;16801;53.562;10.038;2023-12-22T18:01:23;5.67;;;2.70;;
29940;SDS011;16801;53.562;10.038;2023-12-22T18:04:44;5.73;;;3.53;;
29940;SDS011;16801;53.562;10.038;2023-12-22T18:08:07;8.57;;;3.60;;
29940;SDS011;16801;53.562;10.038;2023-12-22T18:11:29;5.80;;;3.60;;
29940;SDS011;16801;53.562;10.038;2023-12-22T18:14:50;4.10;;;3.23;;
29940;SDS011;16801;53.562;10.038;2023-12-22T18:18:10;8.00;;;4.50;;
29940;SDS011;16801;53.562;10.038;2023-12-22T18:21:31;6.13;;;2.77;;
29940;SDS011;16801;53.562;10.038;2023-12-22T18:24:53;4.53;;;3.53;;
29940;SDS011;16801;53.562;10.038;2023-12-22T18:28:14;4.33;;;2.00;;
29940;SDS011;16801;53.562;10.038;2023-12-22T18:31:35;5.30;;;4.77;;
29940;SDS011;16801;53.562;10.038;2023-12-22T18:34:57;9.30;;;2.87;;
29940;SDS011;16801;53.562;10.038;2023-12-22T18:38:18;3.47;;;2.13;;
29940;SDS011;16801;53.562;10.038;2023-12-22T18:41:41;3.63;;;2.00;;
29940;SDS011;16801;53.562;10.038;2023-12-22T18:45:02;5.33;;;2.00;;
29940;SDS011;16801;53.562;10.038;2023-12-22T18:48:23;6.33;;;1.77;;
29940;SDS011;16801;53.562;10.038;2023-12-22T18:51:43;3.33;;;2.47;;
29940;SDS011;16801;53.562;10.038;2023-12-22T18:55:05;1.50;;;1.40;;
29940;SDS011;16801;53.562;10.038;2023-12-22T18:58:27;3.47;;;1.97;;
29940;SDS011;16801;53.562;10.038;2023-12-22T19:01:48;1.70;;;1.33;;
29940;SDS011;16801;53.562;10.038;2023-12-22T19:05:09;1.77;;;1.60;;
29940;SDS011;16801;53.562;10.038;2023-12-22T19:08:29;2.10;;;0.80;;
29940;SDS011;16801;53.562;10.038;2023-12-22T19:11:50;1.97;;;0.77;;
29940;SDS011;16801;53.562;10.038;2023-12-22T19:15:13;2.63;;;1.20;;
29940;SDS011;16801;53.562;10.038;2023-12-22T19:18:35;2.13;;;1.57;;
29940;SDS011;16801;53.562;10.038;2023-12-22T19:21:56;4.80;;;3.63;;
29940;SDS011;16801;53.562;10.038;2023-12-22T19:25:17;3.63;;;1.67;;
29940;SDS011;16801;53.562;10.038;2023-12-22T19:28:38;4.23;;;2.30;;
29940;SDS011;16801;53.562;10.038;2023-12-22T19:32:00;5.33;;;1.63;;
29940;SDS011;16801;53.562;10.038;2023-12-22T19:35:21;4.03;;;1.67;;
29940;SDS011;16801;53.562;10.038;2023-12-22T19:38:42;8.83;;;2.67;;
29940;SDS011;16801;53.562;10.038;2023-12-22T19:42:04;9.03;;;2.73;;
29940;SDS011;16801;53.562;10.038;2023-12-22T19:45:25;4.40;;;2.30;;
29940;SDS011;16801;53.562;10.038;2023-12-22T19:48:48;5.97;;;1.77;;
29940;SDS011;16801;53.562;10.038;2023-12-22T19:52:09;2.33;;;1.40;;
29940;SDS011;16801;53.562;10.038;2023-12-22T19:55:30;3.80;;;2.10;;
29940;SDS011;16801;53.562;10.038;2023-12-22T19:58:52;9.57;;;1.77;;
29940;SDS011;16801;53.562;10.038;2023-12-22T20:02:12;3.47;;;1.67;;